createdAt,value
2018-11-11T00:00:55.224Z,0.60
2018-11-11T00:03:23.074Z,0.70
2018-11-11T00:05:50.963Z,0.67
2018-11-11T00:08:18.848Z,0.80
2018-11-11T00:10:46.696Z,0.80
2018-11-11T00:13:14.556Z,0.90
2018-11-11T00:15:42.392Z,0.60
2018-11-11T00:18:10.262Z,0.63
2018-11-11T00:20:38.160Z,0.80
2018-11-11T00:23:06.049Z,0.90
2018-11-11T00:25:33.968Z,1.03
2018-11-11T00:28:01.909Z,0.67
2018-11-11T00:30:29.798Z,0.70
2018-11-11T00:32:57.789Z,0.83
2018-11-11T00:35:25.726Z,0.50
2018-11-11T00:37:53.614Z,0.77
2018-11-11T00:40:21.541Z,0.87
2018-11-11T00:42:49.415Z,0.40
2018-11-11T00:45:17.261Z,0.77
2018-11-11T00:47:46.061Z,0.83
2018-11-11T00:50:13.991Z,0.73
2018-11-11T00:52:41.840Z,0.60
2018-11-11T00:55:11.475Z,0.70
2018-11-11T00:57:39.395Z,0.60
2018-11-11T01:00:10.243Z,0.67
2018-11-11T01:02:38.229Z,0.50
2018-11-11T01:05:07.002Z,0.43
2018-11-11T01:07:35.032Z,0.47
2018-11-11T01:10:03.563Z,0.57
2018-11-11T01:12:31.383Z,0.43
2018-11-11T01:14:59.198Z,0.57
2018-11-11T01:17:27.007Z,0.70
2018-11-11T01:19:54.831Z,0.80
2018-11-11T01:22:22.647Z,0.60
2018-11-11T01:24:50.457Z,0.70
2018-11-11T01:27:18.299Z,0.60
2018-11-11T01:29:46.299Z,0.50
2018-11-11T01:32:14.109Z,0.70
2018-11-11T01:34:41.931Z,0.60
2018-11-11T01:37:09.798Z,0.57
2018-11-11T01:39:37.639Z,0.50
2018-11-11T01:42:05.843Z,0.37
2018-11-11T01:44:33.672Z,0.40
2018-11-11T01:47:01.492Z,0.40
2018-11-11T01:49:29.305Z,0.53
2018-11-11T01:51:57.146Z,0.70
2018-11-11T01:54:24.959Z,0.40
2018-11-11T01:56:52.780Z,0.50
2018-11-11T01:59:20.599Z,0.70
2018-11-11T02:01:48.463Z,0.70
2018-11-11T02:04:16.376Z,0.43
2018-11-11T02:06:44.207Z,0.70
2018-11-11T02:09:12.669Z,0.60
2018-11-11T02:11:40.584Z,0.33
2018-11-11T02:14:09.238Z,0.53
2018-11-11T02:16:37.415Z,0.60
2018-11-11T02:19:05.635Z,0.43
2018-11-11T02:21:33.577Z,0.60
2018-11-11T02:24:01.492Z,0.60
2018-11-11T02:26:29.314Z,0.33
2018-11-11T02:28:57.119Z,0.30
2018-11-11T02:31:25.248Z,0.60
2018-11-11T02:33:53.350Z,0.60
2018-11-11T02:36:21.168Z,0.50
2018-11-11T02:38:48.992Z,0.60
2018-11-11T02:41:16.822Z,0.53
2018-11-11T02:43:44.650Z,0.53
2018-11-11T02:46:12.487Z,0.40
2018-11-11T02:48:40.332Z,0.60
2018-11-11T02:51:08.137Z,0.70
2018-11-11T02:53:35.957Z,0.43
2018-11-11T02:56:03.798Z,0.40
2018-11-11T02:58:31.631Z,0.60
2018-11-11T03:00:59.465Z,0.57
2018-11-11T03:03:27.278Z,0.50
2018-11-11T03:05:55.155Z,0.50
2018-11-11T03:08:22.992Z,0.40
2018-11-11T03:10:50.818Z,0.70
2018-11-11T03:13:18.633Z,0.53
2018-11-11T03:15:46.475Z,0.30
2018-11-11T03:18:14.298Z,0.40
2018-11-11T03:20:42.116Z,0.50
2018-11-11T03:23:09.965Z,0.50
2018-11-11T03:25:37.773Z,0.40
2018-11-11T03:28:05.683Z,0.50
2018-11-11T03:30:34.308Z,0.40
2018-11-11T03:33:02.899Z,0.43
2018-11-11T03:35:31.371Z,0.40
2018-11-11T03:37:59.873Z,0.50
2018-11-11T03:40:27.697Z,0.40
2018-11-11T03:42:56.067Z,0.60
2018-11-11T03:45:24.312Z,0.60
2018-11-11T03:47:53.087Z,0.60
2018-11-11T03:50:21.422Z,0.40
2018-11-11T03:52:49.825Z,0.50
2018-11-11T03:55:18.398Z,0.57
2018-11-11T03:57:46.218Z,0.50
2018-11-11T04:00:16.106Z,0.47
2018-11-11T04:02:43.999Z,0.30
2018-11-11T04:05:13.358Z,0.40
2018-11-11T04:07:41.863Z,0.50
2018-11-11T04:10:11.604Z,0.43
2018-11-11T04:12:40.427Z,0.77
2018-11-11T04:15:09.750Z,0.50
2018-11-11T04:17:38.282Z,0.40
2018-11-11T04:20:07.182Z,0.47
2018-11-11T04:22:35.052Z,0.50
2018-11-11T04:25:03.518Z,0.50
2018-11-11T04:27:32.149Z,0.40
2018-11-11T04:30:00.624Z,0.57
2018-11-11T04:32:28.447Z,0.40
2018-11-11T04:34:56.337Z,0.60
2018-11-11T04:37:24.178Z,0.30
2018-11-11T04:39:52.007Z,0.30
2018-11-11T04:42:20.017Z,0.47
2018-11-11T04:44:48.492Z,0.40
2018-11-11T04:47:17.186Z,0.40
2018-11-11T04:49:45.745Z,0.30
2018-11-11T04:52:14.190Z,0.30
2018-11-11T04:54:42.010Z,0.30
2018-11-11T04:57:09.835Z,0.30
2018-11-11T04:59:37.876Z,0.23
2018-11-11T05:02:05.706Z,0.37
2018-11-11T05:04:33.626Z,0.37
2018-11-11T05:07:01.399Z,0.40
2018-11-11T05:09:29.931Z,0.23
2018-11-11T05:11:57.749Z,0.20
2018-11-11T05:14:26.542Z,0.20
2018-11-11T05:16:54.358Z,0.30
2018-11-11T05:19:22.943Z,0.13
2018-11-11T05:21:51.578Z,0.40
2018-11-11T05:24:19.391Z,0.20
2018-11-11T05:26:47.213Z,0.30
2018-11-11T05:29:15.448Z,0.20
2018-11-11T05:31:43.950Z,0.10
2018-11-11T05:34:11.779Z,0.20
2018-11-11T05:36:39.630Z,0.20
2018-11-11T05:39:09.318Z,0.20
2018-11-11T05:41:37.884Z,0.30
2018-11-11T05:44:05.910Z,0.20
2018-11-11T05:46:33.761Z,0.10
2018-11-11T05:49:01.605Z,0.20
2018-11-11T05:51:29.455Z,0.43
2018-11-11T05:53:57.280Z,0.20
2018-11-11T05:56:25.301Z,0.33
2018-11-11T05:58:53.118Z,0.20
2018-11-11T06:01:20.942Z,0.20
2018-11-11T06:03:48.751Z,0.30
2018-11-11T06:06:16.655Z,0.20
2018-11-11T06:08:44.469Z,0.20
2018-11-11T06:11:12.300Z,0.30
2018-11-11T06:13:40.143Z,0.20
2018-11-11T06:16:07.989Z,0.20
2018-11-11T06:18:36.253Z,0.33
2018-11-11T06:21:04.124Z,0.30
2018-11-11T06:23:31.945Z,0.40
2018-11-11T06:25:59.784Z,0.30
2018-11-11T06:28:27.633Z,0.33
2018-11-11T06:30:55.540Z,0.20
2018-11-11T06:33:23.353Z,0.20
2018-11-11T06:35:51.176Z,0.30
2018-11-11T06:38:19.334Z,0.30
2018-11-11T06:40:47.157Z,0.20
2018-11-11T06:43:14.999Z,0.30
2018-11-11T06:45:42.878Z,0.23
2018-11-11T06:48:10.837Z,0.30
2018-11-11T06:50:38.712Z,0.27
2018-11-11T06:53:06.547Z,0.10
2018-11-11T06:55:34.367Z,0.30
2018-11-11T06:58:02.234Z,0.23
2018-11-11T07:00:30.088Z,0.30
2018-11-11T07:03:03.183Z,0.40
2018-11-11T07:05:31.099Z,0.30
2018-11-11T07:07:58.936Z,0.20
2018-11-11T07:10:26.881Z,0.40
2018-11-11T07:12:54.739Z,0.20
2018-11-11T07:15:23.091Z,0.30
2018-11-11T07:17:50.967Z,0.30
2018-11-11T07:20:18.778Z,0.30
2018-11-11T07:22:46.647Z,0.50
2018-11-11T07:25:14.528Z,0.40
2018-11-11T07:27:42.441Z,0.20
2018-11-11T07:30:10.275Z,0.30
2018-11-11T07:32:38.136Z,0.20
2018-11-11T07:35:06.955Z,0.30
2018-11-11T07:37:35.221Z,0.30
2018-11-11T07:40:03.110Z,0.20
2018-11-11T07:42:31.097Z,0.20
2018-11-11T07:44:58.927Z,0.30
2018-11-11T07:47:26.756Z,0.40
2018-11-11T07:49:54.566Z,0.37
2018-11-11T07:52:22.395Z,0.40
2018-11-11T07:54:50.765Z,0.30
2018-11-11T07:57:18.628Z,0.30
2018-11-11T07:59:46.476Z,0.50
2018-11-11T08:02:14.343Z,0.43
2018-11-11T08:04:42.203Z,0.20
2018-11-11T08:07:10.020Z,0.33
2018-11-11T08:09:37.866Z,0.30
2018-11-11T08:12:06.875Z,0.30
2018-11-11T08:14:34.710Z,0.20
2018-11-11T08:17:02.583Z,0.30
2018-11-11T08:19:30.415Z,0.40
2018-11-11T08:21:58.236Z,0.30
2018-11-11T08:24:26.064Z,0.40
2018-11-11T08:26:53.963Z,0.60
2018-11-11T08:29:21.883Z,0.40
2018-11-11T08:31:49.711Z,0.60
2018-11-11T08:34:17.797Z,0.40
2018-11-11T08:36:46.042Z,0.40
2018-11-11T08:39:15.171Z,0.40
2018-11-11T08:41:44.209Z,0.43
2018-11-11T08:44:12.355Z,0.53
2018-11-11T08:46:42.154Z,0.50
2018-11-11T08:49:11.088Z,0.40
2018-11-11T08:51:38.932Z,0.40
2018-11-11T08:54:06.808Z,0.40
2018-11-11T08:56:34.663Z,0.40
2018-11-11T08:59:02.550Z,0.50
2018-11-11T09:01:30.382Z,0.50
2018-11-11T09:03:58.247Z,0.47
2018-11-11T09:06:26.131Z,0.20
2018-11-11T09:08:53.957Z,0.40
2018-11-11T09:11:21.921Z,0.40
2018-11-11T09:13:50.476Z,0.60
2018-11-11T09:18:52.805Z,0.50
2018-11-11T09:21:21.155Z,0.50
2018-11-11T09:23:49.066Z,0.63
2018-11-11T09:26:16.922Z,0.90
2018-11-11T09:28:45.325Z,1.13
2018-11-11T09:31:13.207Z,0.70
2018-11-11T09:33:41.044Z,0.93
2018-11-11T09:36:09.875Z,0.60
2018-11-11T09:38:38.028Z,0.73
2018-11-11T09:41:06.669Z,1.00
2018-11-11T09:43:34.528Z,0.90
2018-11-11T09:46:02.420Z,2.03
2018-11-11T09:48:30.259Z,0.83
2018-11-11T09:50:58.339Z,0.70
2018-11-11T09:53:26.614Z,0.70
2018-11-11T09:55:54.478Z,0.80
2018-11-11T09:58:22.454Z,0.90
2018-11-11T10:00:50.374Z,0.60
2018-11-11T10:03:32.884Z,0.60
2018-11-11T10:06:04.835Z,0.83
2018-11-11T10:08:42.756Z,0.80
2018-11-11T10:11:21.757Z,0.80
2018-11-11T10:14:02.152Z,0.97
2018-11-11T10:18:36.644Z,0.77
2018-11-11T10:23:12.070Z,0.90
2018-11-11T10:26:03.011Z,0.70
2018-11-11T10:28:35.089Z,0.80
2018-11-11T10:32:05.267Z,0.80
2018-11-11T10:34:43.416Z,0.63
2018-11-11T10:37:14.466Z,0.80
2018-11-11T10:39:53.685Z,0.80
2018-11-11T10:42:26.747Z,1.00
2018-11-11T10:45:00.041Z,0.80
2018-11-11T10:47:36.292Z,0.70
2018-11-11T10:50:07.503Z,0.80
2018-11-11T10:52:35.336Z,0.93
2018-11-11T10:55:03.163Z,0.80
2018-11-11T10:57:31.008Z,0.73
2018-11-11T10:59:58.833Z,0.70
2018-11-11T11:02:32.776Z,0.67
2018-11-11T11:05:05.901Z,1.03
2018-11-11T11:07:33.715Z,0.90
2018-11-11T11:10:01.548Z,1.27
2018-11-11T11:12:29.407Z,1.00
2018-11-11T11:14:57.232Z,1.20
2018-11-11T11:17:25.063Z,0.90
2018-11-11T11:19:52.915Z,0.90
2018-11-11T11:22:20.763Z,1.07
2018-11-11T11:24:48.619Z,1.27
2018-11-11T11:27:16.498Z,1.30
2018-11-11T11:29:44.318Z,1.10
2018-11-11T11:32:12.193Z,0.90
2018-11-11T11:34:40.008Z,1.00
2018-11-11T11:37:07.868Z,1.90
2018-11-11T11:39:35.744Z,1.23
2018-11-11T11:42:03.603Z,1.07
2018-11-11T11:44:31.461Z,1.40
2018-11-11T11:46:59.319Z,1.07
2018-11-11T11:49:27.138Z,1.00
2018-11-11T11:51:54.993Z,1.10
2018-11-11T11:54:22.828Z,1.07
2018-11-11T11:56:50.642Z,0.83
2018-11-11T11:59:18.468Z,1.00
2018-11-11T12:01:46.294Z,1.10
2018-11-11T12:04:14.411Z,1.10
2018-11-11T12:06:42.228Z,0.70
2018-11-11T12:09:11.208Z,0.97
2018-11-11T12:11:39.005Z,1.40
2018-11-11T12:14:06.849Z,0.97
2018-11-11T12:16:34.794Z,1.10
2018-11-11T12:19:02.701Z,1.17
2018-11-11T12:21:30.639Z,1.07
2018-11-11T12:23:58.465Z,1.00
2018-11-11T12:26:26.290Z,1.60
2018-11-11T12:28:54.115Z,1.20
2018-11-11T12:31:21.964Z,1.50
2018-11-11T12:33:49.801Z,1.10
2018-11-11T12:36:17.666Z,1.03
2018-11-11T12:38:45.546Z,1.00
2018-11-11T12:41:13.738Z,1.33
2018-11-11T12:43:41.574Z,0.90
2018-11-11T12:46:09.466Z,0.70
2018-11-11T12:48:37.325Z,0.87
2018-11-11T12:51:05.722Z,0.60
2018-11-11T12:53:33.558Z,1.07
2018-11-11T12:56:01.388Z,0.93
2018-11-11T12:58:29.276Z,1.00
2018-11-11T13:00:57.189Z,1.07
2018-11-11T13:03:24.990Z,0.93
2018-11-11T13:05:52.957Z,1.17
2018-11-11T13:08:20.787Z,1.20
2018-11-11T13:10:48.628Z,1.10
2018-11-11T13:13:16.771Z,0.80
2018-11-11T13:15:44.625Z,1.10
2018-11-11T13:18:12.443Z,1.17
2018-11-11T13:20:40.303Z,0.90
2018-11-11T13:23:08.124Z,1.07
2018-11-11T13:25:35.943Z,1.40
2018-11-11T13:28:03.819Z,0.97
2018-11-11T13:30:31.627Z,0.80
2018-11-11T13:32:59.463Z,0.97
2018-11-11T13:35:27.312Z,1.00
2018-11-11T13:37:55.193Z,1.30
2018-11-11T13:40:23.019Z,0.93
2018-11-11T13:42:50.846Z,1.00
2018-11-11T13:45:20.307Z,0.93
2018-11-11T13:47:48.776Z,1.10
2018-11-11T13:50:18.901Z,1.03
2018-11-11T13:52:47.366Z,1.13
2018-11-11T13:55:15.899Z,0.80
2018-11-11T13:57:44.499Z,0.80
2018-11-11T14:00:13.859Z,0.83
2018-11-11T14:02:41.778Z,1.13
2018-11-11T14:05:10.321Z,1.10
2018-11-11T14:07:38.460Z,1.00
2018-11-11T14:10:07.045Z,0.90
2018-11-11T14:12:35.243Z,1.40
2018-11-11T14:15:03.145Z,1.10
2018-11-11T14:17:31.018Z,1.07
2018-11-11T14:19:59.020Z,0.80
2018-11-11T14:22:27.225Z,1.00
2018-11-11T14:24:55.153Z,0.90
2018-11-11T14:27:22.931Z,0.90
2018-11-11T14:29:50.780Z,0.90
2018-11-11T14:32:18.665Z,0.97
2018-11-11T14:34:46.519Z,1.37
2018-11-11T14:37:14.341Z,1.23
2018-11-11T14:39:42.225Z,1.30
2018-11-11T14:42:10.044Z,0.90
2018-11-11T14:44:37.872Z,1.10
2018-11-11T14:47:06.047Z,1.00
2018-11-11T14:49:34.699Z,0.80
2018-11-11T14:52:02.749Z,0.80
2018-11-11T14:54:30.524Z,1.10
2018-11-11T14:56:58.365Z,1.20
2018-11-11T14:59:26.192Z,1.70
2018-11-11T15:01:54.025Z,0.90
2018-11-11T15:04:21.921Z,0.90
2018-11-11T15:06:49.756Z,0.80
2018-11-11T15:09:17.582Z,0.97
2018-11-11T15:11:45.404Z,1.00
2018-11-11T15:14:13.228Z,0.87
2018-11-11T15:16:41.051Z,1.20
2018-11-11T15:19:08.939Z,1.00
2018-11-11T15:21:37.140Z,1.20
2018-11-11T15:24:05.274Z,0.83
2018-11-11T15:26:33.112Z,1.07
2018-11-11T15:29:00.929Z,1.20
2018-11-11T15:31:28.843Z,0.93
2018-11-11T15:33:56.646Z,0.80
2018-11-11T15:36:24.468Z,1.10
2018-11-11T15:38:52.298Z,1.10
2018-11-11T15:41:20.130Z,1.60
2018-11-11T15:43:47.969Z,1.10
2018-11-11T15:46:15.816Z,1.30
2018-11-11T15:48:43.642Z,1.90
2018-11-11T15:51:11.493Z,0.80
2018-11-11T15:53:39.375Z,0.87
2018-11-11T15:56:07.232Z,0.80
2018-11-11T15:58:35.076Z,0.90
2018-11-11T16:01:02.898Z,0.93
2018-11-11T16:03:30.732Z,1.13
2018-11-11T16:05:58.557Z,1.07
2018-11-11T16:08:26.392Z,0.70
2018-11-11T16:10:54.220Z,1.10
2018-11-11T16:13:22.051Z,1.10
2018-11-11T16:15:49.883Z,1.00
2018-11-11T16:18:17.707Z,1.10
2018-11-11T16:20:45.535Z,1.20
2018-11-11T16:23:13.372Z,1.43
2018-11-11T16:25:41.325Z,1.20
2018-11-11T16:28:09.119Z,0.83
2018-11-11T16:30:37.901Z,0.80
2018-11-11T16:33:06.767Z,1.23
2018-11-11T16:35:34.613Z,1.00
2018-11-11T16:38:02.873Z,1.27
2018-11-11T16:40:32.305Z,1.03
2018-11-11T16:43:00.494Z,1.27
2018-11-11T16:45:29.715Z,1.20
2018-11-11T16:47:57.594Z,1.00
2018-11-11T16:50:28.010Z,0.90
2018-11-11T16:52:57.217Z,1.10
2018-11-11T16:55:26.515Z,1.93
2018-11-11T16:57:54.449Z,1.10
2018-11-11T17:00:24.673Z,1.30
2018-11-11T17:02:53.020Z,0.90
2018-11-11T17:05:22.362Z,1.00
2018-11-11T17:07:50.672Z,1.00
2018-11-11T17:10:21.111Z,1.40
2018-11-11T17:12:49.991Z,1.10
2018-11-11T17:15:19.441Z,1.30
2018-11-11T17:17:47.843Z,1.20
2018-11-11T17:20:17.241Z,1.07
2018-11-11T17:22:46.327Z,0.90
2018-11-11T17:25:15.422Z,1.73
2018-11-11T17:27:43.793Z,0.90
2018-11-11T17:30:13.238Z,1.00
2018-11-11T17:32:41.794Z,1.00
2018-11-11T17:35:10.255Z,1.10
2018-11-11T17:37:38.585Z,1.30
2018-11-11T17:40:08.833Z,1.20
2018-11-11T17:42:37.149Z,1.20
2018-11-11T17:45:05.768Z,1.30
2018-11-11T17:47:33.754Z,1.33
2018-11-11T17:50:01.722Z,1.43
2018-11-11T17:52:29.779Z,1.20
2018-11-11T17:54:57.794Z,1.43
2018-11-11T17:57:26.008Z,1.30
2018-11-11T17:59:54.026Z,1.23
2018-11-11T18:02:22.092Z,1.40
2018-11-11T18:04:50.115Z,1.50
2018-11-11T18:07:18.153Z,1.00
2018-11-11T18:09:46.249Z,1.07
2018-11-11T18:12:14.179Z,1.57
2018-11-11T18:14:42.092Z,0.93
2018-11-11T18:17:10.145Z,0.90
2018-11-11T18:19:38.102Z,1.13
2018-11-11T18:22:06.108Z,1.00
2018-11-11T18:24:34.040Z,1.00
2018-11-11T18:27:02.030Z,1.10
2018-11-11T18:29:29.939Z,1.20
2018-11-11T18:31:58.149Z,1.30
2018-11-11T18:34:26.389Z,1.23
2018-11-11T18:36:54.589Z,1.00
2018-11-11T18:39:22.803Z,1.00
2018-11-11T18:41:50.735Z,1.00
2018-11-11T18:44:19.038Z,0.90
2018-11-11T18:46:46.879Z,1.03
2018-11-11T18:49:14.706Z,1.03
2018-11-11T18:51:42.684Z,2.87
2018-11-11T18:54:10.555Z,1.33
2018-11-11T18:56:38.875Z,1.13
2018-11-11T18:59:06.936Z,1.40
2018-11-11T19:01:35.183Z,1.00
2018-11-11T19:04:03.083Z,1.00
2018-11-11T19:06:31.389Z,1.67
2018-11-11T19:08:59.880Z,1.30
2018-11-11T19:11:28.047Z,1.00
2018-11-11T19:13:56.859Z,1.10
2018-11-11T19:16:25.116Z,1.20
2018-11-11T19:18:53.194Z,1.63
2018-11-11T19:21:21.006Z,1.03
2018-11-11T19:23:48.887Z,1.20
2018-11-11T19:26:16.699Z,1.30
2018-11-11T19:28:44.532Z,1.27
2018-11-11T19:31:12.392Z,1.10
2018-11-11T19:33:40.542Z,1.60
2018-11-11T19:36:08.395Z,1.27
2018-11-11T19:38:36.285Z,1.10
2018-11-11T19:41:04.145Z,1.40
2018-11-11T19:43:32.044Z,1.20
2018-11-11T19:45:59.883Z,1.33
2018-11-11T19:48:27.733Z,1.50
2018-11-11T19:50:55.585Z,1.20
2018-11-11T19:53:23.754Z,1.60
2018-11-11T19:55:51.962Z,1.03
2018-11-11T19:58:19.988Z,1.70
2018-11-11T20:00:47.910Z,1.10
2018-11-11T20:03:15.837Z,1.20
2018-11-11T20:05:43.769Z,1.20
2018-11-11T20:08:11.718Z,1.27
2018-11-11T20:10:40.122Z,1.40
2018-11-11T20:13:08.068Z,1.00
2018-11-11T20:15:35.930Z,1.30
2018-11-11T20:18:03.824Z,1.37
2018-11-11T20:20:34.289Z,1.10
2018-11-11T20:23:02.171Z,1.07
2018-11-11T20:25:30.222Z,1.27
2018-11-11T20:27:58.152Z,1.50
2018-11-11T20:30:27.357Z,1.40
2018-11-11T20:32:55.313Z,1.37
2018-11-11T20:35:24.695Z,1.00
2018-11-11T20:37:52.619Z,1.50
2018-11-11T20:40:21.775Z,1.37
2018-11-11T20:42:50.049Z,0.87
2018-11-11T20:45:19.350Z,1.00
2018-11-11T20:47:48.775Z,0.97
2018-11-11T20:50:18.009Z,1.43
2018-11-11T20:52:46.696Z,1.00
2018-11-11T20:55:15.298Z,1.07
2018-11-11T20:57:43.461Z,1.00
2018-11-11T21:00:13.232Z,1.60
2018-11-11T21:02:42.439Z,1.13
2018-11-11T21:05:12.256Z,1.17
2018-11-11T21:07:40.431Z,1.53
2018-11-11T21:10:09.551Z,1.50
2018-11-11T21:12:37.431Z,1.43
2018-11-11T21:15:06.459Z,1.13
2018-11-11T21:17:34.279Z,1.33
2018-11-11T21:20:02.254Z,1.40
2018-11-11T21:22:30.286Z,1.10
2018-11-11T21:24:58.163Z,1.43
2018-11-11T21:27:26.002Z,1.30
2018-11-11T21:29:53.843Z,2.13
2018-11-11T21:32:21.830Z,1.50
2018-11-11T21:34:49.741Z,1.33
2018-11-11T21:37:17.580Z,1.30
2018-11-11T21:39:45.553Z,1.10
2018-11-11T21:42:13.391Z,1.17
2018-11-11T21:44:41.433Z,1.27
2018-11-11T21:47:09.407Z,1.30
2018-11-11T21:49:37.347Z,1.13
2018-11-11T21:52:05.435Z,1.17
2018-11-11T21:54:33.253Z,1.27
2018-11-11T21:57:01.890Z,1.17
2018-11-11T21:59:29.785Z,1.60
2018-11-11T22:01:57.639Z,0.97
2018-11-11T22:04:25.471Z,1.20
2018-11-11T22:06:53.385Z,0.90
2018-11-11T22:09:21.403Z,1.07
2018-11-11T22:11:49.303Z,1.50
2018-11-11T22:14:17.151Z,0.73
2018-11-11T22:16:45.066Z,1.23
2018-11-11T22:19:12.952Z,1.30
2018-11-11T22:21:40.780Z,0.97
2018-11-11T22:24:08.621Z,1.10
2018-11-11T22:26:36.456Z,1.10
2018-11-11T22:29:04.299Z,1.50
2018-11-11T22:31:32.152Z,1.03
2018-11-11T22:33:59.975Z,1.23
2018-11-11T22:36:27.800Z,0.90
2018-11-11T22:38:55.647Z,0.90
2018-11-11T22:41:23.478Z,1.30
2018-11-11T22:43:51.303Z,1.10
2018-11-11T22:46:19.139Z,0.93
2018-11-11T22:48:46.988Z,1.27
2018-11-11T22:51:14.879Z,1.53
2018-11-11T22:53:42.691Z,1.10
2018-11-11T22:56:10.524Z,1.30
2018-11-11T22:58:38.355Z,1.30
2018-11-11T23:01:11.356Z,1.00
2018-11-11T23:03:39.161Z,1.07
2018-11-11T23:06:07.083Z,0.90
2018-11-11T23:08:34.914Z,1.00
2018-11-11T23:11:02.749Z,1.70
2018-11-11T23:13:30.575Z,0.70
2018-11-11T23:15:58.452Z,1.37
2018-11-11T23:18:26.280Z,0.90
2018-11-11T23:20:54.104Z,0.90
2018-11-11T23:23:22.427Z,1.33
2018-11-11T23:25:50.259Z,0.70
2018-11-11T23:28:18.142Z,1.00
2018-11-11T23:30:45.959Z,0.80
2018-11-11T23:33:13.789Z,0.90
2018-11-11T23:35:41.621Z,0.90
2018-11-11T23:38:09.466Z,0.80
2018-11-11T23:40:37.318Z,0.60
2018-11-11T23:43:05.225Z,0.80
2018-11-11T23:45:33.051Z,0.77
2018-11-11T23:48:00.859Z,0.87
2018-11-11T23:50:28.668Z,0.80
2018-11-11T23:52:56.495Z,0.60
2018-11-11T23:55:24.867Z,0.93
2018-11-11T23:57:52.818Z,0.80
